Time;durP1;ratioP1;P1;durP2;ratioP2;P2;SDS_P1;SDS_P2;PMS_P1;PMS_P2;Temp;Humidity;BMP_temperature;BMP_pressure;BME280_temperature;BME280_humidity;BME280_pressure;Samples;Min_cycle;Max_cycle;Signal;HPM_P1;HPM_P2
2021/05/01 00:01:48;;;;;;;2.90;2.63;;;17.80;53.00;;;;;;5077138;28;20176;-66
2021/05/01 00:04:13;;;;;;;3.08;2.70;;;17.70;52.90;;;;;;5094647;28;20162;-71
2021/05/01 00:06:39;;;;;;;3.45;2.95;;;17.70;52.90;;;;;;5076869;28;20260;-71
2021/05/01 00:09:05;;;;;;;3.92;2.90;;;17.70;52.90;;;;;;5077214;28;20300;-66
2021/05/01 00:11:31;;;;;;;2.78;2.47;;;17.70;52.90;;;;;;5076581;28;20253;-67
2021/05/01 00:13:58;;;;;;;3.13;2.83;;;17.70;52.90;;;;;;5060418;28;20265;-68
2021/05/01 00:16:24;;;;;;;2.97;2.42;;;17.70;52.90;;;;;;5077538;28;20689;-66
2021/05/01 00:18:50;;;;;;;3.35;3.00;;;17.70;52.90;;;;;;5059697;28;20229;-67
2021/05/01 00:21:16;;;;;;;3.40;2.97;;;17.70;52.90;;;;;;5060182;28;20645;-71
2021/05/01 00:23:41;;;;;;;4.30;2.80;;;17.70;52.90;;;;;;5076115;28;20240;-71
2021/05/01 00:26:10;;;;;;;2.83;2.53;;;17.70;52.90;;;;;;5076285;28;20180;-66
2021/05/01 00:28:36;;;;;;;4.18;3.13;;;17.70;52.90;;;;;;5094649;28;20169;-67
2021/05/01 00:31:01;;;;;;;3.05;2.63;;;17.70;52.90;;;;;;5094468;28;20237;-66
2021/05/01 00:33:27;;;;;;;3.17;2.90;;;17.70;52.90;;;;;;5076241;28;20173;-70
2021/05/01 00:35:52;;;;;;;3.00;2.70;;;17.70;52.90;;;;;;5076416;28;20219;-64
2021/05/01 00:38:18;;;;;;;2.72;2.50;;;17.60;53.50;;;;;;5076708;28;20245;-65
2021/05/01 00:40:43;;;;;;;3.28;2.72;;;17.60;52.80;;;;;;5093790;28;20528;-65
2021/05/01 00:43:09;;;;;;;3.80;2.80;;;17.60;52.90;;;;;;5076582;28;20165;-65
2021/05/01 00:45:35;;;;;;;3.38;2.65;;;17.60;52.80;;;;;;5094209;28;20295;-71
2021/05/01 00:48:00;;;;;;;3.00;2.80;;;17.60;52.90;;;;;;5059136;28;20177;-73
2021/05/01 00:50:26;;;;;;;2.80;2.47;;;17.60;52.90;;;;;;5094514;28;20274;-65
2021/05/01 00:52:51;;;;;;;2.67;2.38;;;17.60;52.80;;;;;;5094145;28;20244;-66
2021/05/01 00:55:17;;;;;;;4.63;2.58;;;17.60;52.90;;;;;;5059063;28;20248;-66
2021/05/01 00:57:43;;;;;;;2.75;2.53;;;17.60;52.90;;;;;;5076201;28;20170;-66
2021/05/01 01:00:18;;;;;;;3.38;2.80;;;17.60;52.80;;;;;;5075756;28;20174;-67
2021/05/01 01:02:44;;;;;;;3.20;2.50;;;17.60;52.80;;;;;;5077311;28;20231;-64
2021/05/01 01:05:10;;;;;;;3.38;2.63;;;17.60;52.80;;;;;;5076239;28;20166;-65
2021/05/01 01:07:36;;;;;;;2.65;2.45;;;17.60;52.80;;;;;;5093181;28;20174;-71
2021/05/01 01:10:01;;;;;;;3.47;2.90;;;17.60;52.80;;;;;;5094066;28;20262;-66
2021/05/01 01:12:27;;;;;;;3.25;2.95;;;17.60;52.90;;;;;;5094118;28;20665;-66
2021/05/01 01:14:56;;;;;;;3.20;2.90;;;17.60;53.50;;;;;;5093232;28;20192;-71
2021/05/01 01:17:22;;;;;;;3.45;2.60;;;17.60;52.90;;;;;;5094327;28;20169;-67
2021/05/01 01:19:48;;;;;;;2.75;2.55;;;17.50;52.80;;;;;;5075695;28;20170;-66
2021/05/01 01:22:17;;;;;;;2.80;2.60;;;17.50;52.80;;;;;;5093139;28;20253;-71
2021/05/01 01:24:43;;;;;;;2.80;2.60;;;17.50;52.80;;;;;;5093453;28;20248;-67
2021/05/01 01:27:08;;;;;;;2.88;2.67;;;17.50;52.80;;;;;;5075774;28;20248;-71
2021/05/01 01:29:38;;;;;;;2.80;2.60;;;17.50;52.80;;;;;;5092765;28;20265;-65
2021/05/01 01:32:05;;;;;;;2.70;2.50;;;17.50;52.70;;;;;;5058921;28;20209;-64
2021/05/01 01:34:30;;;;;;;3.10;2.80;;;17.50;52.80;;;;;;5074978;28;20166;-71
2021/05/01 01:36:56;;;;;;;2.67;2.47;;;17.50;52.70;;;;;;5074520;28;20176;-64
2021/05/01 01:39:22;;;;;;;2.63;2.42;;;17.50;52.80;;;;;;5075554;28;20173;-65
2021/05/01 01:41:47;;;;;;;2.67;2.40;;;17.50;52.70;;;;;;5075256;28;20174;-65
2021/05/01 01:44:13;;;;;;;3.25;2.70;;;17.50;52.70;;;;;;5074857;28;20224;-71
2021/05/01 01:46:38;;;;;;;3.00;2.72;;;17.50;52.80;;;;;;5093383;28;20181;-72
2021/05/01 01:49:04;;;;;;;2.78;2.55;;;17.40;52.70;;;;;;5075541;28;20209;-65
2021/05/01 01:51:30;;;;;;;3.30;2.95;;;17.50;52.80;;;;;;5074299;28;20574;-64
2021/05/01 01:53:55;;;;;;;2.92;2.72;;;17.50;52.80;;;;;;5075207;28;20807;-70
2021/05/01 01:56:21;;;;;;;3.15;2.72;;;17.50;52.80;;;;;;5092871;28;20538;-66
2021/05/01 01:58:47;;;;;;;2.83;2.63;;;17.40;52.70;;;;;;5093162;28;20174;-65
2021/05/01 02:01:13;;;;;;;2.72;2.47;;;17.40;52.70;;;;;;5093274;28;20354;-70
2021/05/01 02:03:38;;;;;;;2.85;2.63;;;17.40;52.60;;;;;;5090366;28;20213;-68
2021/05/01 02:06:04;;;;;;;2.78;2.58;;;17.40;52.70;;;;;;5058483;28;20585;-65
2021/05/01 02:08:30;;;;;;;2.55;2.35;;;17.40;52.60;;;;;;5074966;28;20182;-65
2021/05/01 02:10:56;;;;;;;3.03;2.72;;;17.40;52.60;;;;;;5074490;28;20165;-64
2021/05/01 02:13:21;;;;;;;2.40;2.20;;;17.40;52.60;;;;;;5075172;28;20170;-67
2021/05/01 02:15:47;;;;;;;2.67;2.47;;;17.40;52.60;;;;;;5092008;28;20647;-65
2021/05/01 02:18:12;;;;;;;3.00;2.33;;;17.40;52.60;;;;;;5093446;28;20237;-73
2021/05/01 02:20:38;;;;;;;2.50;2.30;;;17.40;52.60;;;;;;5092698;28;20211;-65
2021/05/01 02:23:05;;;;;;;3.53;2.53;;;17.40;52.60;;;;;;5074465;28;20170;-64
2021/05/01 02:25:31;;;;;;;2.60;2.40;;;17.40;52.60;;;;;;5092599;28;20635;-65
2021/05/01 02:27:56;;;;;;;3.72;2.63;;;17.40;52.60;;;;;;5074853;28;20202;-67
2021/05/01 02:30:26;;;;;;;2.22;2.08;;;17.40;52.60;;;;;;5057509;28;20205;-66
2021/05/01 02:32:52;;;;;;;2.40;2.20;;;17.30;52.50;;;;;;5071067;28;20343;-66
2021/05/01 02:35:23;;;;;;;2.90;2.28;;;17.30;52.50;;;;;;5072611;28;20250;-62
2021/05/01 02:37:49;;;;;;;2.50;2.30;;;17.30;52.50;;;;;;5071843;28;20158;-63
2021/05/01 02:40:15;;;;;;;2.72;2.53;;;17.30;52.50;;;;;;5054816;28;20174;-67
2021/05/01 02:42:42;;;;;;;2.65;2.45;;;17.30;52.50;;;;;;5071145;28;20167;-66
2021/05/01 02:45:16;;;;;;;2.53;2.28;;;17.30;52.50;;;;;;5070771;28;20166;-73
2021/05/01 02:47:41;;;;;;;3.20;2.63;;;17.30;52.50;;;;;;5058065;28;20166;-65
2021/05/01 02:50:08;;;;;;;2.95;2.53;;;17.30;52.60;;;;;;5058644;28;20718;-72
2021/05/01 02:52:33;;;;;;;2.88;2.60;;;17.30;52.50;;;;;;5057769;28;20178;-72
2021/05/01 02:54:59;;;;;;;3.42;2.40;;;17.30;52.60;;;;;;5075294;28;20597;-67
2021/05/01 02:57:25;;;;;;;2.60;2.40;;;17.30;52.50;;;;;;5075189;28;20189;-67
2021/05/01 02:59:50;;;;;;;3.78;2.63;;;17.30;52.50;;;;;;5075490;28;20258;-71
2021/05/01 03:02:16;;;;;;;2.95;2.65;;;17.20;52.50;;;;;;5075252;28;20602;-65
2021/05/01 03:04:42;;;;;;;2.55;2.38;;;17.20;52.50;;;;;;5074657;28;20167;-65
2021/05/01 03:07:07;;;;;;;2.45;2.25;;;17.30;52.60;;;;;;5074227;28;20619;-65
2021/05/01 03:09:33;;;;;;;2.90;2.70;;;17.20;52.40;;;;;;5074581;28;20210;-66
2021/05/01 03:11:58;;;;;;;3.35;2.75;;;17.20;52.40;;;;;;5074265;28;20670;-71
2021/05/01 03:14:25;;;;;;;2.38;2.17;;;17.20;52.50;;;;;;5076283;28;20170;-66
2021/05/01 03:16:54;;;;;;;3.40;2.50;;;17.20;52.50;;;;;;5075634;28;20245;-67
2021/05/01 03:19:20;;;;;;;3.22;2.45;;;17.20;52.50;;;;;;5075333;28;20205;-67
2021/05/01 03:21:46;;;;;;;2.47;2.28;;;17.20;52.50;;;;;;5075497;28;20171;-67
2021/05/01 03:24:12;;;;;;;2.53;2.33;;;17.20;52.50;;;;;;5074537;28;20171;-68
2021/05/01 03:26:38;;;;;;;2.70;2.22;;;17.20;52.50;;;;;;5073979;28;20163;-68
2021/05/01 03:29:04;;;;;;;2.67;2.47;;;17.20;52.50;;;;;;5074507;28;20205;-67
2021/05/01 03:31:29;;;;;;;2.88;2.55;;;17.20;52.50;;;;;;5081682;28;20209;-65
2021/05/01 03:33:55;;;;;;;2.47;2.28;;;17.20;52.50;;;;;;5077283;28;20174;-66
2021/05/01 03:36:20;;;;;;;2.65;2.45;;;17.20;52.50;;;;;;5077856;28;20170;-71
2021/05/01 03:38:46;;;;;;;2.60;2.33;;;17.20;52.50;;;;;;5060746;28;20208;-66
2021/05/01 03:41:12;;;;;;;2.58;2.38;;;17.10;52.40;;;;;;5077161;28;20638;-71
2021/05/01 03:43:37;;;;;;;2.22;2.08;;;17.10;52.40;;;;;;5095538;28;20219;-67
2021/05/01 03:46:03;;;;;;;3.67;2.72;;;17.10;52.40;;;;;;5095787;28;20653;-67
2021/05/01 03:48:29;;;;;;;3.13;2.08;;;17.10;52.40;;;;;;5094774;28;20249;-66
2021/05/01 03:50:54;;;;;;;2.65;2.45;;;17.10;52.40;;;;;;5077576;28;20169;-66
2021/05/01 03:53:21;;;;;;;2.47;2.28;;;17.10;52.40;;;;;;5095522;28;20629;-66
2021/05/01 03:55:47;;;;;;;2.65;2.25;;;17.10;52.40;;;;;;5094551;28;20181;-71
2021/05/01 03:58:13;;;;;;;2.40;2.22;;;17.10;52.40;;;;;;5094547;28;20166;-67
2021/05/01 04:00:38;;;;;;;3.33;2.30;;;17.10;52.40;;;;;;5095245;28;20507;-66
2021/05/01 04:03:04;;;;;;;2.30;2.10;;;17.10;52.40;;;;;;5076894;28;20170;-69
2021/05/01 04:05:30;;;;;;;2.47;2.28;;;17.10;52.40;;;;;;5076880;28;20625;-65
2021/05/01 04:07:55;;;;;;;2.60;2.40;;;17.10;52.40;;;;;;5077422;28;20174;-66
2021/05/01 04:10:21;;;;;;;2.50;2.30;;;17.10;52.40;;;;;;5076427;28;20242;-66
2021/05/01 04:12:46;;;;;;;2.40;2.20;;;17.10;52.40;;;;;;5094911;28;20154;-66
2021/05/01 04:15:12;;;;;;;1.90;1.80;;;17.00;52.40;;;;;;5076500;28;20686;-67
2021/05/01 04:17:38;;;;;;;2.38;2.17;;;17.10;52.40;;;;;;5060296;28;20176;-66
2021/05/01 04:20:04;;;;;;;2.55;2.35;;;17.00;52.40;;;;;;5060466;28;20185;-67
2021/05/01 04:22:30;;;;;;;2.05;1.95;;;17.00;52.40;;;;;;5076199;28;20846;-72
2021/05/01 04:24:56;;;;;;;2.55;2.10;;;17.00;52.40;;;;;;5076860;28;20174;-67
2021/05/01 04:27:21;;;;;;;2.47;2.25;;;17.00;52.40;;;;;;5095069;28;20176;-70
2021/05/01 04:29:47;;;;;;;2.78;2.35;;;17.00;52.40;;;;;;5075813;28;20214;-66
2021/05/01 04:32:12;;;;;;;2.20;2.00;;;17.00;52.40;;;;;;5076710;28;20209;-65
2021/05/01 04:34:38;;;;;;;2.35;2.15;;;17.00;52.40;;;;;;5094385;28;20166;-64
2021/05/01 04:37:03;;;;;;;2.75;2.55;;;17.00;52.40;;;;;;5094254;28;20637;-66
2021/05/01 04:39:29;;;;;;;1.80;1.70;;;17.00;52.40;;;;;;5094485;28;20174;-67
2021/05/01 04:41:55;;;;;;;1.90;1.80;;;17.00;52.30;;;;;;5076632;28;20177;-67
2021/05/01 04:44:21;;;;;;;2.13;1.92;;;17.00;52.40;;;;;;5093860;28;20295;-73
2021/05/01 04:46:50;;;;;;;1.88;1.77;;;17.00;52.40;;;;;;5059982;28;20642;-66
2021/05/01 04:49:16;;;;;;;2.25;2.03;;;17.00;52.40;;;;;;5094465;28;20196;-66
2021/05/01 04:51:42;;;;;;;2.08;1.98;;;17.00;52.40;;;;;;5093580;28;20173;-67
2021/05/01 04:54:07;;;;;;;2.00;1.90;;;17.00;52.40;;;;;;5076232;28;20198;-67
2021/05/01 04:56:33;;;;;;;2.30;2.10;;;16.90;52.90;;;;;;5059324;28;20684;-69
2021/05/01 04:58:59;;;;;;;2.10;1.80;;;16.90;52.30;;;;;;5075578;28;20173;-68
2021/05/01 05:01:24;;;;;;;1.70;1.60;;;16.90;53.00;;;;;;5076019;28;20223;-67
2021/05/01 05:03:51;;;;;;;2.05;1.95;;;17.00;52.30;;;;;;5093856;28;20257;-66
2021/05/01 05:06:17;;;;;;;2.33;2.13;;;17.00;52.30;;;;;;5093647;28;20257;-73
2021/05/01 05:08:42;;;;;;;1.88;1.77;;;17.00;52.40;;;;;;5093708;28;20205;-66
2021/05/01 05:11:08;;;;;;;1.70;1.60;;;17.10;53.10;;;;;;5094012;28;20173;-67
2021/05/01 05:13:34;;;;;;;2.45;1.98;;;17.20;52.30;;;;;;5093040;28;20166;-67
2021/05/01 05:15:59;;;;;;;2.00;1.80;;;17.40;52.10;;;;;;5093812;28;20219;-67
2021/05/01 05:18:25;;;;;;;1.60;1.50;;;17.50;52.00;;;;;;5093987;28;20185;-68
2021/05/01 05:20:51;;;;;;;2.08;1.75;;;17.70;51.70;;;;;;5041872;28;20664;-67
2021/05/01 05:23:16;;;;;;;2.67;2.10;;;17.90;51.50;;;;;;5094069;28;20170;-67
2021/05/01 05:25:42;;;;;;;1.75;1.65;;;18.10;51.20;;;;;;5092798;28;20774;-70
2021/05/01 05:28:08;;;;;;;2.33;1.80;;;18.20;51.00;;;;;;5075801;28;20169;-67
2021/05/01 05:30:33;;;;;;;1.67;1.58;;;18.30;50.80;;;;;;5093393;28;20699;-66
2021/05/01 05:33:00;;;;;;;1.90;1.60;;;18.40;50.70;;;;;;5092873;28;20551;-70
2021/05/01 05:35:26;;;;;;;1.67;1.58;;;18.50;50.50;;;;;;5075628;28;20580;-64
2021/05/01 05:37:51;;;;;;;2.20;1.55;;;18.60;50.30;;;;;;5075302;28;20225;-65
2021/05/01 05:40:17;;;;;;;1.40;1.30;;;18.70;50.10;;;;;;5074846;28;20201;-66
2021/05/01 05:42:44;;;;;;;2.00;1.60;;;18.70;50.00;;;;;;5075182;28;20648;-66
2021/05/01 05:45:10;;;;;;;1.48;1.35;;;18.80;49.90;;;;;;5059034;28;20257;-72
2021/05/01 05:47:36;;;;;;;2.00;1.80;;;18.80;49.80;;;;;;5074804;28;20162;-66
2021/05/01 05:50:01;;;;;;;1.48;1.38;;;18.80;49.90;;;;;;5093357;28;20211;-67
2021/05/01 05:52:27;;;;;;;1.63;1.30;;;18.70;50.00;;;;;;5058589;28;20181;-66
2021/05/01 05:54:53;;;;;;;1.63;1.48;;;18.70;50.10;;;;;;5092627;28;20644;-67
2021/05/01 05:57:18;;;;;;;1.80;1.67;;;18.60;50.20;;;;;;5093468;28;20170;-66
2021/05/01 05:59:44;;;;;;;1.73;1.63;;;18.50;50.20;;;;;;5058341;28;20637;-66
2021/05/01 06:02:12;;;;;;;1.40;1.30;;;18.40;50.40;;;;;;5092713;28;20196;-65
2021/05/01 06:04:48;;;;;;;1.45;1.35;;;18.40;50.50;;;;;;5074827;28;20170;-65
2021/05/01 06:07:21;;;;;;;1.60;1.50;;;18.30;50.60;;;;;;5076417;28;20162;-67
2021/05/01 06:09:47;;;;;;;2.08;1.30;;;18.20;50.70;;;;;;5074485;28;20727;-66
2021/05/01 06:12:13;;;;;;;1.73;1.63;;;18.20;50.90;;;;;;5041761;28;20197;-71
2021/05/01 06:14:42;;;;;;;1.48;1.38;;;18.10;51.00;;;;;;5074625;28;20219;-66
2021/05/01 06:17:11;;;;;;;1.40;1.30;;;18.00;51.00;;;;;;5092860;28;20173;-66
2021/05/01 06:19:38;;;;;;;2.08;1.20;;;18.00;51.10;;;;;;5058615;28;20169;-66
2021/05/01 06:22:04;;;;;;;2.40;1.40;;;17.90;51.20;;;;;;5057387;28;20180;-67
2021/05/01 06:24:30;;;;;;;1.35;1.25;;;18.00;51.30;;;;;;5074534;28;20169;-67
2021/05/01 06:26:56;;;;;;;2.05;1.55;;;17.90;51.40;;;;;;5075202;28;20165;-68
2021/05/01 06:29:23;;;;;;;1.40;1.40;;;17.90;51.40;;;;;;5074431;28;20250;-66
2021/05/01 06:31:48;;;;;;;1.80;1.70;;;17.80;51.50;;;;;;5057924;28;20213;-66
2021/05/01 06:34:14;;;;;;;1.70;1.60;;;17.80;51.60;;;;;;5074708;28;20260;-65
2021/05/01 06:36:40;;;;;;;1.88;1.50;;;17.80;51.60;;;;;;5074218;28;20166;-70
2021/05/01 06:39:06;;;;;;;1.60;1.50;;;17.80;51.70;;;;;;5058101;28;20655;-66
2021/05/01 06:41:43;;;;;;;1.40;1.30;;;17.70;51.70;;;;;;5092448;28;20172;-66
2021/05/01 06:44:14;;;;;;;1.30;1.20;;;17.80;51.80;;;;;;5075653;28;20162;-66
2021/05/01 06:46:40;;;;;;;1.42;1.30;;;17.90;51.70;;;;;;5092602;28;20166;-67
2021/05/01 06:49:09;;;;;;;3.00;1.63;;;17.90;51.70;;;;;;5074758;28;20637;-72
2021/05/01 06:51:38;;;;;;;1.33;1.23;;;17.90;51.60;;;;;;5057350;28;20169;-66
2021/05/01 06:54:07;;;;;;;1.80;1.50;;;17.90;51.60;;;;;;5057995;28;20173;-66
2021/05/01 06:56:32;;;;;;;1.55;1.45;;;17.90;51.60;;;;;;5092284;28;20626;-71
2021/05/01 06:59:02;;;;;;;2.35;1.40;;;18.00;51.50;;;;;;5057338;28;20171;-70
2021/05/01 07:01:28;;;;;;;1.98;1.63;;;18.00;51.60;;;;;;5092279;28;20694;-70
2021/05/01 07:03:53;;;;;;;2.47;1.67;;;18.00;51.70;;;;;;5057869;28;20181;-69
2021/05/01 07:06:19;;;;;;;3.05;1.75;;;18.00;51.70;;;;;;5057357;28;20680;-70
2021/05/01 07:08:45;;;;;;;2.33;1.77;;;18.00;51.90;;;;;;5074155;28;20253;-65
2021/05/01 07:11:12;;;;;;;2.75;1.88;;;18.10;52.00;;;;;;5057292;28;20529;-68
2021/05/01 07:13:38;;;;;;;2.35;1.83;;;18.10;52.30;;;;;;5057910;28;20170;-69
2021/05/01 07:16:04;;;;;;;2.83;2.30;;;18.10;52.40;;;;;;5074423;28;20186;-68
2021/05/01 07:18:30;;;;;;;2.65;1.98;;;18.10;52.50;;;;;;5073743;28;20214;-69
2021/05/01 07:20:59;;;;;;;3.17;2.13;;;18.10;52.60;;;;;;5092308;28;20169;-69
2021/05/01 07:23:25;;;;;;;2.20;1.90;;;18.10;52.70;;;;;;5074814;28;20211;-70
2021/05/01 07:25:51;;;;;;;4.32;2.28;;;18.00;52.60;;;;;;5073378;28;20253;-67
2021/05/01 07:28:19;;;;;;;6.40;2.40;;;18.00;52.50;;;;;;5057844;28;20181;-66
2021/05/01 07:30:44;;;;;;;4.88;2.30;;;18.00;52.60;;;;;;5074248;28;20210;-66
2021/05/01 07:33:25;;;;;;;3.78;2.15;;;18.10;52.70;;;;;;5057536;28;20185;-66
2021/05/01 07:35:55;;;;;;;2.78;1.90;;;18.00;52.70;;;;;;5061709;28;20538;-68
2021/05/01 07:38:22;;;;;;;4.28;2.55;;;18.00;52.50;;;;;;5096029;28;20253;-69
2021/05/01 07:40:48;;;;;;;3.72;2.25;;;18.00;52.50;;;;;;5076990;28;20256;-69
2021/05/01 07:43:17;;;;;;;3.13;2.30;;;18.00;52.40;;;;;;5077604;28;20233;-69
2021/05/01 07:45:42;;;;;;;3.53;2.55;;;18.00;52.40;;;;;;5077444;28;20166;-69
2021/05/01 07:48:11;;;;;;;3.95;2.15;;;18.00;52.30;;;;;;5076963;28;20176;-69
2021/05/01 07:50:37;;;;;;;3.83;2.50;;;18.00;52.20;;;;;;5060597;28;20240;-70
2021/05/01 07:53:03;;;;;;;2.38;2.13;;;17.90;52.10;;;;;;5077551;28;20205;-69
2021/05/01 07:55:29;;;;;;;3.55;2.38;;;18.00;52.20;;;;;;5059754;28;20174;-70
2021/05/01 07:57:54;;;;;;;4.28;2.40;;;18.00;51.80;;;;;;5060990;28;20170;-67
2021/05/01 08:00:20;;;;;;;4.85;2.78;;;18.00;51.80;;;;;;5076788;28;20256;-67
2021/05/01 08:02:46;;;;;;;5.63;2.03;;;18.00;51.90;;;;;;5095204;28;20166;-67
2021/05/01 08:05:12;;;;;;;3.05;2.53;;;18.00;51.90;;;;;;5077419;28;20522;-67
2021/05/01 08:07:38;;;;;;;3.97;2.22;;;18.00;52.00;;;;;;5076456;28;20214;-68
2021/05/01 08:10:04;;;;;;;4.93;2.22;;;18.10;52.70;;;;;;5060613;28;20280;-67
2021/05/01 08:12:30;;;;;;;2.15;1.83;;;18.10;52.10;;;;;;5060187;28;20659;-67
2021/05/01 08:14:55;;;;;;;3.33;2.10;;;18.10;52.00;;;;;;5076458;28;20174;-66
2021/05/01 08:17:21;;;;;;;3.15;2.10;;;18.20;51.90;;;;;;5077120;28;20181;-67
2021/05/01 08:19:46;;;;;;;5.50;2.25;;;18.20;51.80;;;;;;5076791;28;20162;-66
2021/05/01 08:22:12;;;;;;;5.50;2.15;;;18.30;51.80;;;;;;5094474;28;20178;-68
2021/05/01 08:24:38;;;;;;;3.83;2.00;;;18.30;51.60;;;;;;5076637;28;20176;-69
2021/05/01 08:27:03;;;;;;;6.05;2.22;;;18.30;51.80;;;;;;5095102;28;20688;-69
2021/05/01 08:29:29;;;;;;;2.53;1.70;;;18.30;51.80;;;;;;5075934;28;20213;-68
2021/05/01 08:31:54;;;;;;;4.15;2.10;;;18.30;51.90;;;;;;5094760;28;20220;-69
2021/05/01 08:34:20;;;;;;;5.32;1.90;;;18.30;51.70;;;;;;5094758;28;20669;-70
2021/05/01 08:36:46;;;;;;;4.20;2.35;;;18.30;51.70;;;;;;5059232;28;20231;-69
2021/05/01 08:39:12;;;;;;;4.88;2.55;;;18.30;51.50;;;;;;5076680;28;20192;-70
2021/05/01 08:41:37;;;;;;;3.05;2.30;;;18.30;51.40;;;;;;5094447;28;20174;-72
2021/05/01 08:44:08;;;;;;;3.47;2.35;;;18.30;51.40;;;;;;5093490;28;20641;-72
2021/05/01 08:46:34;;;;;;;2.92;2.03;;;18.30;51.20;;;;;;5076492;28;20223;-73
2021/05/01 08:49:01;;;;;;;4.38;2.35;;;18.30;51.20;;;;;;5059928;28;20643;-71
2021/05/01 08:51:27;;;;;;;3.45;2.00;;;18.30;51.30;;;;;;5093813;28;20660;-71
2021/05/01 08:53:52;;;;;;;2.05;1.90;;;18.20;51.50;;;;;;5059524;28;20178;-72
2021/05/01 08:56:18;;;;;;;3.15;1.95;;;18.10;51.50;;;;;;5076395;28;20178;-73
2021/05/01 08:58:44;;;;;;;2.70;2.00;;;18.20;52.10;;;;;;5093500;28;20528;-73
2021/05/01 09:01:12;;;;;;;3.75;2.08;;;18.30;51.30;;;;;;5094279;28;20547;-74
2021/05/01 09:03:38;;;;;;;2.08;1.98;;;18.40;51.20;;;;;;5075512;28;20169;-73
2021/05/01 09:06:04;;;;;;;2.63;2.03;;;18.30;51.10;;;;;;5059666;28;20186;-73
2021/05/01 09:08:30;;;;;;;2.25;2.05;;;18.40;51.10;;;;;;5059252;28;20162;-74
2021/05/01 09:10:55;;;;;;;2.10;1.90;;;18.40;51.10;;;;;;5058705;28;20201;-73
2021/05/01 09:13:25;;;;;;;2.42;2.20;;;18.40;51.30;;;;;;5073879;28;20223;-70
2021/05/01 09:16:01;;;;;;;3.58;2.50;;;18.30;51.30;;;;;;5075283;28;20180;-69
2021/05/01 09:18:29;;;;;;;2.35;2.03;;;18.30;51.60;;;;;;5075236;28;20170;-72
2021/05/01 09:20:54;;;;;;;4.25;2.83;;;18.30;51.70;;;;;;5076155;28;20221;-70
2021/05/01 09:23:20;;;;;;;2.40;2.13;;;18.30;51.90;;;;;;5056995;28;20174;-73
2021/05/01 09:25:53;;;;;;;3.40;3.08;;;18.20;51.90;;;;;;5054200;28;20175;-71
2021/05/01 09:28:19;;;;;;;3.75;2.65;;;18.20;52.10;;;;;;5063220;28;20194;-73
2021/05/01 09:31:01;;;;;;;3.45;2.38;;;18.10;52.10;;;;;;5075229;28;20632;-72
2021/05/01 09:33:31;;;;;;;3.17;2.85;;;18.10;52.20;;;;;;5054863;28;20197;-71
2021/05/01 09:36:03;;;;;;;3.50;3.20;;;18.30;52.10;;;;;;5039003;28;20159;-73
2021/05/01 09:38:31;;;;;;;3.08;2.78;;;18.40;52.00;;;;;;5055980;28;20166;-73
2021/05/01 09:40:57;;;;;;;4.38;2.90;;;18.40;52.00;;;;;;5078411;28;20169;-72
2021/05/01 09:43:22;;;;;;;5.53;3.25;;;18.50;51.90;;;;;;5075448;28;20250;-72
2021/05/01 09:45:48;;;;;;;4.15;3.05;;;18.40;51.90;;;;;;5092434;28;20182;-73
2021/05/01 09:48:18;;;;;;;3.50;3.08;;;18.40;52.00;;;;;;5058773;28;20173;-72
2021/05/01 09:50:44;;;;;;;3.83;2.70;;;18.30;52.10;;;;;;5074962;28;20296;-73
2021/05/01 09:53:12;;;;;;;3.42;2.90;;;18.30;52.30;;;;;;5092632;28;20249;-72
2021/05/01 09:55:48;;;;;;;3.20;2.70;;;18.20;52.40;;;;;;5074592;28;20660;-71
2021/05/01 09:58:29;;;;;;;3.25;2.95;;;18.20;52.50;;;;;;5093049;28;20524;-73
2021/05/01 10:01:13;;;;;;;3.42;3.08;;;18.20;52.50;;;;;;5074603;28;20170;-72
2021/05/01 10:03:38;;;;;;;3.33;2.90;;;18.40;52.50;;;;;;5092841;28;20154;-73
2021/05/01 10:06:05;;;;;;;3.72;3.05;;;18.40;52.40;;;;;;5093251;28;20186;-74
2021/05/01 10:08:31;;;;;;;3.67;2.70;;;18.40;52.30;;;;;;5040968;28;20298;-73
2021/05/01 10:10:57;;;;;;;4.40;2.85;;;18.40;52.30;;;;;;5058344;28;20202;-73
2021/05/01 10:13:23;;;;;;;4.72;3.30;;;18.50;52.30;;;;;;5092983;28;20162;-70
2021/05/01 10:15:49;;;;;;;3.58;2.67;;;18.50;52.30;;;;;;5057361;28;20177;-72
2021/05/01 10:18:19;;;;;;;4.53;2.92;;;18.50;52.30;;;;;;5093061;28;20173;-73
2021/05/01 10:20:51;;;;;;;4.50;2.53;;;18.60;52.30;;;;;;5035093;28;20182;-72
2021/05/01 10:23:18;;;;;;;3.10;2.28;;;18.60;52.30;;;;;;5054608;28;20261;-72
2021/05/01 10:25:45;;;;;;;3.00;2.70;;;18.60;52.20;;;;;;5037892;28;20175;-72
2021/05/01 10:28:15;;;;;;;5.10;2.80;;;18.60;52.00;;;;;;5037773;28;20166;-73
2021/05/01 10:30:50;;;;;;;4.78;2.90;;;18.70;51.70;;;;;;5055502;28;20626;-72
2021/05/01 10:33:24;;;;;;;4.15;2.70;;;18.60;51.00;;;;;;5038736;28;20255;-71
2021/05/01 10:36:18;;;;;;;4.53;2.40;;;18.60;50.90;;;;;;5037503;28;20582;-70
2021/05/01 10:38:43;;;;;;;3.35;2.65;;;18.50;50.80;;;;;;5072283;28;20174;-69
2021/05/01 10:41:19;;;;;;;4.07;3.17;;;18.40;50.30;;;;;;5072533;28;20536;-70
2021/05/01 10:43:49;;;;;;;4.07;2.58;;;18.30;50.50;;;;;;5071734;28;20614;-69
2021/05/01 10:46:28;;;;;;;5.03;2.83;;;18.20;50.40;;;;;;5037919;28;20193;-69
2021/05/01 10:49:07;;;;;;;4.32;2.60;;;18.20;50.20;;;;;;5055897;28;20166;-69
2021/05/01 10:51:46;;;;;;;2.53;2.30;;;18.10;50.10;;;;;;5039371;28;20319;-69
2021/05/01 10:54:12;;;;;;;3.10;2.38;;;18.00;49.90;;;;;;5037866;28;20223;-69
2021/05/01 10:56:46;;;;;;;3.30;2.50;;;18.00;50.00;;;;;;5071612;28;20683;-70
2021/05/01 10:59:18;;;;;;;4.25;2.28;;;18.00;49.70;;;;;;5055859;28;20258;-70
2021/05/01 11:01:48;;;;;;;4.38;2.63;;;18.00;49.70;;;;;;5054267;28;20233;-70
2021/05/01 11:04:26;;;;;;;4.75;2.25;;;17.90;49.50;;;;;;5053801;28;20202;-70
2021/05/01 11:07:08;;;;;;;2.83;2.08;;;17.90;49.50;;;;;;5038134;28;20178;-70
2021/05/01 11:09:43;;;;;;;4.68;2.55;;;17.90;49.50;;;;;;5043422;28;20205;-69
2021/05/01 11:12:20;;;;;;;4.88;2.55;;;17.90;49.50;;;;;;5058091;28;20170;-67
2021/05/01 11:15:07;;;;;;;3.47;2.00;;;17.90;48.70;;;;;;5057836;28;20162;-69
2021/05/01 11:17:33;;;;;;;3.72;2.15;;;17.90;48.80;;;;;;5075128;28;20265;-69
2021/05/01 11:20:13;;;;;;;2.65;2.10;;;17.90;48.80;;;;;;5076196;28;20201;-68
2021/05/01 11:22:40;;;;;;;3.80;2.05;;;18.00;48.80;;;;;;5057650;28;20231;-68
2021/05/01 11:25:07;;;;;;;5.18;2.00;;;18.00;48.80;;;;;;5057306;28;20170;-68
2021/05/01 11:27:32;;;;;;;4.20;2.00;;;18.10;48.80;;;;;;5057876;28;20228;-71
2021/05/01 11:29:58;;;;;;;3.30;2.30;;;18.10;48.60;;;;;;5057894;28;20218;-70
2021/05/01 11:32:24;;;;;;;3.10;2.10;;;18.10;48.70;;;;;;5057140;28;20258;-69
2021/05/01 11:35:25;;;;;;;5.03;2.25;;;18.30;48.50;;;;;;5057408;28;20227;-68
2021/05/01 11:37:55;;;;;;;1.95;1.67;;;18.40;48.10;;;;;;5040813;28;20190;-68
2021/05/01 11:40:22;;;;;;;3.80;2.00;;;18.40;48.10;;;;;;5057205;28;20171;-68
2021/05/01 11:42:48;;;;;;;3.85;2.10;;;18.50;48.20;;;;;;5057430;28;20235;-70
2021/05/01 11:45:35;;;;;;;3.75;1.90;;;18.40;48.20;;;;;;5041252;28;20633;-70
2021/05/01 11:48:04;;;;;;;3.38;1.80;;;18.40;48.30;;;;;;5024767;28;20179;-71
2021/05/01 11:50:29;;;;;;;3.33;2.05;;;18.40;48.20;;;;;;5024865;28;20210;-69
2021/05/01 11:53:13;;;;;;;4.78;2.25;;;18.40;48.20;;;;;;5056917;28;20170;-70
2021/05/01 11:55:59;;;;;;;2.22;1.67;;;18.30;48.20;;;;;;5079094;28;20253;-69
2021/05/01 11:58:35;;;;;;;2.33;1.70;;;18.30;48.20;;;;;;5072616;28;20177;-68
2021/05/01 12:01:31;;;;;;;3.92;2.17;;;18.30;48.20;;;;;;5055940;28;20170;-70
2021/05/01 12:04:03;;;;;;;4.78;1.92;;;18.20;48.10;;;;;;5071156;28;20174;-68
2021/05/01 12:06:28;;;;;;;1.95;1.73;;;18.20;48.30;;;;;;5059264;28;20162;-67
2021/05/01 12:09:02;;;;;;;3.72;1.92;;;18.20;48.40;;;;;;5093666;28;20176;-69
2021/05/01 12:11:30;;;;;;;2.33;1.70;;;18.20;48.40;;;;;;5043199;28;20178;-69
2021/05/01 12:13:58;;;;;;;2.28;1.85;;;18.10;48.40;;;;;;5033617;28;20167;-69
2021/05/01 12:16:24;;;;;;;1.90;1.70;;;18.10;48.50;;;;;;5076100;28;20197;-69
2021/05/01 12:18:51;;;;;;;3.67;2.00;;;18.10;48.50;;;;;;5057897;28;20169;-70
2021/05/01 12:21:17;;;;;;;1.90;1.65;;;18.10;48.60;;;;;;5093053;28;20253;-69
2021/05/01 12:23:50;;;;;;;2.35;1.52;;;18.10;48.50;;;;;;5075268;28;20169;-69
2021/05/01 12:26:38;;;;;;;2.30;2.10;;;18.10;48.60;;;;;;5073692;28;20184;-70
2021/05/01 12:29:19;;;;;;;1.52;1.42;;;18.10;48.50;;;;;;5091787;28;20602;-68
2021/05/01 12:31:51;;;;;;;3.20;1.80;;;18.10;48.40;;;;;;5091846;28;20221;-70
2021/05/01 12:34:18;;;;;;;1.75;1.55;;;18.20;48.40;;;;;;5075182;28;20247;-69
2021/05/01 12:36:50;;;;;;;3.20;1.70;;;18.20;48.30;;;;;;5088540;28;20169;-72
2021/05/01 12:39:16;;;;;;;2.05;1.60;;;18.30;48.20;;;;;;5056196;28;20170;-71
2021/05/01 12:41:43;;;;;;;1.60;1.50;;;18.40;48.60;;;;;;5055617;28;20182;-72
2021/05/01 12:44:29;;;;;;;1.40;1.27;;;18.40;47.70;;;;;;5068477;28;20171;-72
2021/05/01 12:46:56;;;;;;;1.83;1.55;;;18.30;47.60;;;;;;5074069;28;20174;-71
2021/05/01 12:49:22;;;;;;;4.97;1.77;;;18.30;47.50;;;;;;5055998;28;20194;-72
2021/05/01 12:51:57;;;;;;;2.78;1.40;;;18.20;47.40;;;;;;5051336;28;20213;-73